Southwest Oregon Regional Airport North Bend US
ICAO: KOTH
IATA: OTH
Category: Medium
Scheduled Services: Yes

Elevation: 17 ft
TransAlt. 18000 ft.

Airport Communications:
AWOS 3:135.075
SEATTLE CNTR:121.4
AIR:34.5
MC MINNVILLE RDO:122.4
UNICOM:122.7

KOTH Zoom In..

Runways:

(A) RW 04 length 5980 ft width 150 ft
ILS 108.50 / hdg 43

(B) RW 13 length 4470 ft width 150 ft
---- / hdg 132

(C) RW 22 length 5980 ft width 150 ft
---- / hdg 223

(D) RW 31 length 4470 ft width 150 ft
---- / hdg 312

Location; KOTH
Day. 19 / Time. 20.56 Zulu
* Altimeter: 30.18
* Temperature: 18° c. 64.4°f.
* Wind from: 350° Speed 26 kn with Gusts up to 32 kn.
Dewpoint: 11° c.
Visibility: 10 Statute Miles.
Clouds: Clear (automated report).

KOTH 192056Z 35026G32KT 10SM CLR 18/11 A3018 RMK AO2 PK WND 35032/2050 SLP218 T01830106 58007


Wind From 350°
Speed 26 kn.

 
 
jpsmedia.com for Web Design worldairports.se 2018   terms of use